sensor_id;sensor_type;location;lat;lon;timestamp;temperature;humidity
71291;DHT22;59073;51.994;4.448;2023-11-21T00:00:33;10.25;82.54
71291;DHT22;59073;51.994;4.448;2023-11-21T00:02:59;10.29;82.44
71291;DHT22;59073;51.994;4.448;2023-11-21T00:05:24;10.29;81.86
71291;DHT22;59073;51.994;4.448;2023-11-21T00:07:50;10.32;82.21
71291;DHT22;59073;51.994;4.448;2023-11-21T00:10:16;10.39;82.30
71291;DHT22;59073;51.994;4.448;2023-11-21T00:12:42;10.39;82.03
71291;DHT22;59073;51.994;4.448;2023-11-21T00:15:09;10.38;82.12
71291;DHT22;59073;51.994;4.448;2023-11-21T00:17:36;10.42;82.40
71291;DHT22;59073;51.994;4.448;2023-11-21T00:20:03;10.53;82.48
71291;DHT22;59073;51.994;4.448;2023-11-21T00:22:31;10.62;82.37
71291;DHT22;59073;51.994;4.448;2023-11-21T00:24:57;10.75;82.47
71291;DHT22;59073;51.994;4.448;2023-11-21T00:27:23;10.65;82.27
71291;DHT22;59073;51.994;4.448;2023-11-21T00:29:48;10.62;82.72
71291;DHT22;59073;51.994;4.448;2023-11-21T00:32:14;10.63;82.40
71291;DHT22;59073;51.994;4.448;2023-11-21T00:34:39;10.70;83.12
71291;DHT22;59073;51.994;4.448;2023-11-21T00:37:05;10.86;83.36
71291;DHT22;59073;51.994;4.448;2023-11-21T00:39:30;11.04;83.12
71291;DHT22;59073;51.994;4.448;2023-11-21T00:41:56;11.17;83.07
71291;DHT22;59073;51.994;4.448;2023-11-21T00:44:21;11.27;82.99
71291;DHT22;59073;51.994;4.448;2023-11-21T00:46:46;11.26;82.45
71291;DHT22;59073;51.994;4.448;2023-11-21T00:49:12;11.23;82.35
71291;DHT22;59073;51.994;4.448;2023-11-21T00:51:38;11.20;82.26
71291;DHT22;59073;51.994;4.448;2023-11-21T00:54:04;11.24;82.27
71291;DHT22;59073;51.994;4.448;2023-11-21T00:56:29;11.11;82.68
71291;DHT22;59073;51.994;4.448;2023-11-21T00:58:54;11.23;82.84
71291;DHT22;59073;51.994;4.448;2023-11-21T01:01:21;11.16;82.48
71291;DHT22;59073;51.994;4.448;2023-11-21T01:03:48;11.21;83.04
71291;DHT22;59073;51.994;4.448;2023-11-21T01:06:15;11.37;82.98
71291;DHT22;59073;51.994;4.448;2023-11-21T01:08:40;11.41;82.91
71291;DHT22;59073;51.994;4.448;2023-11-21T01:11:06;11.51;83.05
71291;DHT22;59073;51.994;4.448;2023-11-21T01:13:33;11.58;82.87
71291;DHT22;59073;51.994;4.448;2023-11-21T01:16:00;11.61;82.68
71291;DHT22;59073;51.994;4.448;2023-11-21T01:18:26;11.65;82.43
71291;DHT22;59073;51.994;4.448;2023-11-21T01:20:51;11.71;82.36
71291;DHT22;59073;51.994;4.448;2023-11-21T01:23:19;11.74;82.46
71291;DHT22;59073;51.994;4.448;2023-11-21T01:25:44;11.77;82.42
71291;DHT22;59073;51.994;4.448;2023-11-21T01:28:10;11.81;82.40
71291;DHT22;59073;51.994;4.448;2023-11-21T01:30:35;11.78;81.84
71291;DHT22;59073;51.994;4.448;2023-11-21T01:33:01;11.79;81.90
71291;DHT22;59073;51.994;4.448;2023-11-21T01:35:26;11.78;81.87
71291;DHT22;59073;51.994;4.448;2023-11-21T01:37:51;11.79;81.64
71291;DHT22;59073;51.994;4.448;2023-11-21T01:40:17;11.78;81.56
71291;DHT22;59073;51.994;4.448;2023-11-21T01:42:43;11.74;81.59
71291;DHT22;59073;51.994;4.448;2023-11-21T01:45:09;11.77;81.67
71291;DHT22;59073;51.994;4.448;2023-11-21T01:47:36;11.81;81.56
71291;DHT22;59073;51.994;4.448;2023-11-21T01:50:03;11.83;81.51
71291;DHT22;59073;51.994;4.448;2023-11-21T01:52:31;11.85;81.56
71291;DHT22;59073;51.994;4.448;2023-11-21T01:54:59;11.86;81.47
71291;DHT22;59073;51.994;4.448;2023-11-21T01:57:25;11.86;81.56
71291;DHT22;59073;51.994;4.448;2023-11-21T01:59:54;11.79;81.29
71291;DHT22;59073;51.994;4.448;2023-11-21T02:02:19;11.81;81.53
71291;DHT22;59073;51.994;4.448;2023-11-21T02:04:45;11.77;81.34
71291;DHT22;59073;51.994;4.448;2023-11-21T02:07:10;11.69;81.34
71291;DHT22;59073;51.994;4.448;2023-11-21T02:09:36;11.58;81.57
71291;DHT22;59073;51.994;4.448;2023-11-21T02:12:04;11.65;82.09
71291;DHT22;59073;51.994;4.448;2023-11-21T02:14:30;11.78;82.00
71291;DHT22;59073;51.994;4.448;2023-11-21T02:16:57;11.82;81.59
71291;DHT22;59073;51.994;4.448;2023-11-21T02:19:23;11.72;81.63
71291;DHT22;59073;51.994;4.448;2023-11-21T02:21:52;11.68;81.83
71291;DHT22;59073;51.994;4.448;2023-11-21T02:24:19;11.75;82.02
71291;DHT22;59073;51.994;4.448;2023-11-21T02:26:45;11.83;82.02
71291;DHT22;59073;51.994;4.448;2023-11-21T02:29:11;11.86;82.02
71291;DHT22;59073;51.994;4.448;2023-11-21T02:31:38;11.96;81.90
71291;DHT22;59073;51.994;4.448;2023-11-21T02:34:14;11.98;81.61
71291;DHT22;59073;51.994;4.448;2023-11-21T02:36:39;12.00;81.49
71291;DHT22;59073;51.994;4.448;2023-11-21T02:39:05;11.95;81.66
71291;DHT22;59073;51.994;4.448;2023-11-21T02:41:31;11.98;81.70
71291;DHT22;59073;51.994;4.448;2023-11-21T02:43:57;12.03;81.58
71291;DHT22;59073;51.994;4.448;2023-11-21T02:46:22;12.05;81.53
71291;DHT22;59073;51.994;4.448;2023-11-21T02:48:48;12.09;81.35
71291;DHT22;59073;51.994;4.448;2023-11-21T02:51:13;12.13;81.62
71291;DHT22;59073;51.994;4.448;2023-11-21T02:53:41;12.13;81.44
71291;DHT22;59073;51.994;4.448;2023-11-21T02:56:06;12.16;82.00
71291;DHT22;59073;51.994;4.448;2023-11-21T02:58:32;12.20;81.64
71291;DHT22;59073;51.994;4.448;2023-11-21T03:00:57;12.19;81.57
71291;DHT22;59073;51.994;4.448;2023-11-21T03:03:23;12.18;81.74
71291;DHT22;59073;51.994;4.448;2023-11-21T03:05:49;12.25;81.96
71291;DHT22;59073;51.994;4.448;2023-11-21T03:08:15;12.30;81.64
71291;DHT22;59073;51.994;4.448;2023-11-21T03:10:40;12.33;81.45
71291;DHT22;59073;51.994;4.448;2023-11-21T03:13:06;12.34;81.43
71291;DHT22;59073;51.994;4.448;2023-11-21T03:15:31;12.34;81.44
71291;DHT22;59073;51.994;4.448;2023-11-21T03:17:58;12.32;81.48
71291;DHT22;59073;51.994;4.448;2023-11-21T03:20:23;12.36;81.67
71291;DHT22;59073;51.994;4.448;2023-11-21T03:22:49;12.43;81.77
71291;DHT22;59073;51.994;4.448;2023-11-21T03:25:15;12.47;81.46
71291;DHT22;59073;51.994;4.448;2023-11-21T03:27:41;12.43;81.04
71291;DHT22;59073;51.994;4.448;2023-11-21T03:30:08;12.44;81.43
71291;DHT22;59073;51.994;4.448;2023-11-21T03:32:34;12.49;81.58
71291;DHT22;59073;51.994;4.448;2023-11-21T03:35:01;12.39;80.88
71291;DHT22;59073;51.994;4.448;2023-11-21T03:37:27;12.18;81.98
71291;DHT22;59073;51.994;4.448;2023-11-21T03:39:52;12.16;82.35
71291;DHT22;59073;51.994;4.448;2023-11-21T03:42:19;12.26;82.70
71291;DHT22;59073;51.994;4.448;2023-11-21T03:44:44;12.36;82.47
71291;DHT22;59073;51.994;4.448;2023-11-21T03:47:10;12.47;82.38
71291;DHT22;59073;51.994;4.448;2023-11-21T03:49:35;12.53;82.07
71291;DHT22;59073;51.994;4.448;2023-11-21T03:52:01;12.60;82.08
71291;DHT22;59073;51.994;4.448;2023-11-21T03:54:26;12.64;82.05
71291;DHT22;59073;51.994;4.448;2023-11-21T03:56:51;12.65;81.86
71291;DHT22;59073;51.994;4.448;2023-11-21T03:59:17;12.65;81.89
71291;DHT22;59073;51.994;4.448;2023-11-21T04:01:42;12.60;81.92
71291;DHT22;59073;51.994;4.448;2023-11-21T04:04:08;12.61;82.01
71291;DHT22;59073;51.994;4.448;2023-11-21T04:06:33;12.63;81.97
71291;DHT22;59073;51.994;4.448;2023-11-21T04:08:59;12.70;81.99
71291;DHT22;59073;51.994;4.448;2023-11-21T04:11:24;12.70;81.85
71291;DHT22;59073;51.994;4.448;2023-11-21T04:13:50;12.67;81.75
71291;DHT22;59073;51.994;4.448;2023-11-21T04:16:15;12.68;81.71
71291;DHT22;59073;51.994;4.448;2023-11-21T04:18:41;12.68;81.47
71291;DHT22;59073;51.994;4.448;2023-11-21T04:21:06;12.60;81.55
71291;DHT22;59073;51.994;4.448;2023-11-21T04:23:33;12.54;81.56
71291;DHT22;59073;51.994;4.448;2023-11-21T04:25:59;12.53;81.61
71291;DHT22;59073;51.994;4.448;2023-11-21T04:28:25;12.39;81.61
71291;DHT22;59073;51.994;4.448;2023-11-21T04:30:51;12.34;82.02
71291;DHT22;59073;51.994;4.448;2023-11-21T04:33:16;12.39;82.26
71291;DHT22;59073;51.994;4.448;2023-11-21T04:35:42;12.39;82.14
71291;DHT22;59073;51.994;4.448;2023-11-21T04:38:07;12.39;82.41
71291;DHT22;59073;51.994;4.448;2023-11-21T04:40:33;12.50;82.27
71291;DHT22;59073;51.994;4.448;2023-11-21T04:42:58;12.41;82.27
71291;DHT22;59073;51.994;4.448;2023-11-21T04:45:23;12.33;82.76
71291;DHT22;59073;51.994;4.448;2023-11-21T04:47:49;12.23;82.88
71291;DHT22;59073;51.994;4.448;2023-11-21T04:50:14;12.30;82.96
71291;DHT22;59073;51.994;4.448;2023-11-21T04:52:40;12.33;82.69
71291;DHT22;59073;51.994;4.448;2023-11-21T04:55:05;12.30;82.90
71291;DHT22;59073;51.994;4.448;2023-11-21T04:57:35;12.37;82.89
71291;DHT22;59073;51.994;4.448;2023-11-21T05:00:00;12.30;83.11
71291;DHT22;59073;51.994;4.448;2023-11-21T05:02:26;12.39;83.01
71291;DHT22;59073;51.994;4.448;2023-11-21T05:04:51;12.32;83.34
71291;DHT22;59073;51.994;4.448;2023-11-21T05:07:18;12.34;82.82
71291;DHT22;59073;51.994;4.448;2023-11-21T05:09:43;12.29;83.23
71291;DHT22;59073;51.994;4.448;2023-11-21T05:12:12;12.19;83.90
71291;DHT22;59073;51.994;4.448;2023-11-21T05:14:38;12.12;83.83
71291;DHT22;59073;51.994;4.448;2023-11-21T05:17:03;12.12;83.69
71291;DHT22;59073;51.994;4.448;2023-11-21T05:19:29;12.18;83.30
71291;DHT22;59073;51.994;4.448;2023-11-21T05:21:55;12.09;83.20
71291;DHT22;59073;51.994;4.448;2023-11-21T05:24:20;12.02;83.91
71291;DHT22;59073;51.994;4.448;2023-11-21T05:26:46;11.89;84.06
71291;DHT22;59073;51.994;4.448;2023-11-21T05:29:11;11.91;83.98
71291;DHT22;59073;51.994;4.448;2023-11-21T05:31:37;11.91;83.42
71291;DHT22;59073;51.994;4.448;2023-11-21T05:34:03;11.88;83.27
71291;DHT22;59073;51.994;4.448;2023-11-21T05:36:30;11.79;82.83
71291;DHT22;59073;51.994;4.448;2023-11-21T05:38:56;11.60;83.31
71291;DHT22;59073;51.994;4.448;2023-11-21T05:41:21;11.52;84.47
71291;DHT22;59073;51.994;4.448;2023-11-21T05:43:47;11.57;84.37
71291;DHT22;59073;51.994;4.448;2023-11-21T05:46:12;11.61;83.99
71291;DHT22;59073;51.994;4.448;2023-11-21T05:48:38;11.64;84.00
71291;DHT22;59073;51.994;4.448;2023-11-21T05:51:05;11.69;84.26
71291;DHT22;59073;51.994;4.448;2023-11-21T05:53:31;11.77;85.18
71291;DHT22;59073;51.994;4.448;2023-11-21T05:55:56;11.82;85.71
71291;DHT22;59073;51.994;4.448;2023-11-21T05:58:22;11.83;85.83
71291;DHT22;59073;51.994;4.448;2023-11-21T06:00:48;11.77;85.44
71291;DHT22;59073;51.994;4.448;2023-11-21T06:03:13;11.62;85.79
71291;DHT22;59073;51.994;4.448;2023-11-21T06:05:38;11.51;86.95
71291;DHT22;59073;51.994;4.448;2023-11-21T06:08:04;11.47;87.68
71291;DHT22;59073;51.994;4.448;2023-11-21T06:10:30;11.50;87.79
71291;DHT22;59073;51.994;4.448;2023-11-21T06:12:55;11.61;87.82
71291;DHT22;59073;51.994;4.448;2023-11-21T06:15:21;11.64;87.82
71291;DHT22;59073;51.994;4.448;2023-11-21T06:17:48;11.72;87.72
71291;DHT22;59073;51.994;4.448;2023-11-21T06:20:18;11.72;87.59
71291;DHT22;59073;51.994;4.448;2023-11-21T06:22:48;11.71;87.86
71291;DHT22;59073;51.994;4.448;2023-11-21T06:25:15;11.82;87.55
71291;DHT22;59073;51.994;4.448;2023-11-21T06:27:42;11.81;87.40
71291;DHT22;59073;51.994;4.448;2023-11-21T06:30:09;11.83;87.08
71291;DHT22;59073;51.994;4.448;2023-11-21T06:32:39;11.68;86.81
71291;DHT22;59073;51.994;4.448;2023-11-21T06:35:05;11.45;87.67
71291;DHT22;59073;51.994;4.448;2023-11-21T06:37:32;11.35;87.90
71291;DHT22;59073;51.994;4.448;2023-11-21T06:39:59;11.38;87.72
71291;DHT22;59073;51.994;4.448;2023-11-21T06:42:26;11.37;87.45
71291;DHT22;59073;51.994;4.448;2023-11-21T06:44:52;11.34;87.56
71291;DHT22;59073;51.994;4.448;2023-11-21T06:47:19;11.38;87.42
71291;DHT22;59073;51.994;4.448;2023-11-21T06:49:47;11.30;87.44
71291;DHT22;59073;51.994;4.448;2023-11-21T06:52:15;11.20;86.99
71291;DHT22;59073;51.994;4.448;2023-11-21T06:54:41;11.10;87.91
71291;DHT22;59073;51.994;4.448;2023-11-21T06:57:06;11.07;88.12
71291;DHT22;59073;51.994;4.448;2023-11-21T06:59:31;11.07;87.59
71291;DHT22;59073;51.994;4.448;2023-11-21T07:01:57;11.09;87.72
71291;DHT22;59073;51.994;4.448;2023-11-21T07:04:22;11.10;88.32
71291;DHT22;59073;51.994;4.448;2023-11-21T07:06:49;11.00;88.81
71291;DHT22;59073;51.994;4.448;2023-11-21T07:09:14;10.90;88.86
71291;DHT22;59073;51.994;4.448;2023-11-21T07:11:41;10.93;89.34
71291;DHT22;59073;51.994;4.448;2023-11-21T07:14:06;11.03;89.47
71291;DHT22;59073;51.994;4.448;2023-11-21T07:16:35;11.14;89.34
71291;DHT22;59073;51.994;4.448;2023-11-21T07:19:05;11.13;89.41
71291;DHT22;59073;51.994;4.448;2023-11-21T07:21:35;11.13;89.74
71291;DHT22;59073;51.994;4.448;2023-11-21T07:24:02;11.17;89.84
71291;DHT22;59073;51.994;4.448;2023-11-21T07:26:28;11.24;89.74
71291;DHT22;59073;51.994;4.448;2023-11-21T07:28:53;11.34;89.36
71291;DHT22;59073;51.994;4.448;2023-11-21T07:31:19;11.40;89.16
71291;DHT22;59073;51.994;4.448;2023-11-21T07:33:45;11.37;89.18
71291;DHT22;59073;51.994;4.448;2023-11-21T07:36:13;11.30;89.41
71291;DHT22;59073;51.994;4.448;2023-11-21T07:38:38;11.26;89.35
71291;DHT22;59073;51.994;4.448;2023-11-21T07:41:04;11.32;89.24
71291;DHT22;59073;51.994;4.448;2023-11-21T07:43:30;11.41;88.95
71291;DHT22;59073;51.994;4.448;2023-11-21T07:46:02;11.50;88.40
71291;DHT22;59073;51.994;4.448;2023-11-21T07:48:32;11.55;88.00
71291;DHT22;59073;51.994;4.448;2023-11-21T07:50:58;11.68;87.66
71291;DHT22;59073;51.994;4.448;2023-11-21T07:53:24;11.85;87.12
71291;DHT22;59073;51.994;4.448;2023-11-21T07:55:56;11.86;86.69
71291;DHT22;59073;51.994;4.448;2023-11-21T07:58:22;11.96;86.31
71291;DHT22;59073;51.994;4.448;2023-11-21T08:00:49;12.02;86.21
71291;DHT22;59073;51.994;4.448;2023-11-21T08:03:14;11.86;86.25
71291;DHT22;59073;51.994;4.448;2023-11-21T08:05:40;11.75;86.62
71291;DHT22;59073;51.994;4.448;2023-11-21T08:08:05;11.68;86.81
71291;DHT22;59073;51.994;4.448;2023-11-21T08:10:31;11.85;86.36
71291;DHT22;59073;51.994;4.448;2023-11-21T08:12:56;11.85;86.29
71291;DHT22;59073;51.994;4.448;2023-11-21T08:15:22;11.85;86.14
71291;DHT22;59073;51.994;4.448;2023-11-21T08:17:47;11.93;86.21
71291;DHT22;59073;51.994;4.448;2023-11-21T08:20:13;12.13;85.67
71291;DHT22;59073;51.994;4.448;2023-11-21T08:22:42;12.03;85.09
71291;DHT22;59073;51.994;4.448;2023-11-21T08:25:08;11.95;85.81
71291;DHT22;59073;51.994;4.448;2023-11-21T08:27:34;11.98;85.91
71291;DHT22;59073;51.994;4.448;2023-11-21T08:30:01;11.96;86.10
71291;DHT22;59073;51.994;4.448;2023-11-21T08:32:26;11.95;86.03
71291;DHT22;59073;51.994;4.448;2023-11-21T08:34:51;11.91;86.06
71291;DHT22;59073;51.994;4.448;2023-11-21T08:37:17;11.82;86.34
71291;DHT22;59073;51.994;4.448;2023-11-21T08:39:44;12.03;85.98
71291;DHT22;59073;51.994;4.448;2023-11-21T08:42:09;12.09;85.81
71291;DHT22;59073;51.994;4.448;2023-11-21T08:44:35;12.08;85.65
71291;DHT22;59073;51.994;4.448;2023-11-21T08:47:00;12.09;85.85
71291;DHT22;59073;51.994;4.448;2023-11-21T08:49:26;12.09;85.91
71291;DHT22;59073;51.994;4.448;2023-11-21T08:51:53;12.13;85.86
71291;DHT22;59073;51.994;4.448;2023-11-21T08:54:21;12.13;86.04
71291;DHT22;59073;51.994;4.448;2023-11-21T08:56:46;12.15;85.71
71291;DHT22;59073;51.994;4.448;2023-11-21T08:59:13;12.06;85.96
71291;DHT22;59073;51.994;4.448;2023-11-21T09:01:39;12.02;86.09
71291;DHT22;59073;51.994;4.448;2023-11-21T09:04:05;11.85;86.28
71291;DHT22;59073;51.994;4.448;2023-11-21T09:06:30;11.85;86.66
71291;DHT22;59073;51.994;4.448;2023-11-21T09:08:56;11.77;86.79
71291;DHT22;59073;51.994;4.448;2023-11-21T09:11:21;11.68;87.18
71291;DHT22;59073;51.994;4.448;2023-11-21T09:13:46;11.85;87.17
71291;DHT22;59073;51.994;4.448;2023-11-21T09:16:14;11.92;86.55
71291;DHT22;59073;51.994;4.448;2023-11-21T09:18:40;11.82;86.75
71291;DHT22;59073;51.994;4.448;2023-11-21T09:21:06;11.79;87.17
71291;DHT22;59073;51.994;4.448;2023-11-21T09:23:31;11.68;87.11
71291;DHT22;59073;51.994;4.448;2023-11-21T09:25:57;11.82;87.19
71291;DHT22;59073;51.994;4.448;2023-11-21T09:28:25;11.75;87.01
71291;DHT22;59073;51.994;4.448;2023-11-21T09:30:53;11.74;86.85
71291;DHT22;59073;51.994;4.448;2023-11-21T09:33:18;11.67;87.12
71291;DHT22;59073;51.994;4.448;2023-11-21T09:35:44;11.67;87.40
71291;DHT22;59073;51.994;4.448;2023-11-21T09:38:10;11.82;87.15
71291;DHT22;59073;51.994;4.448;2023-11-21T09:40:37;11.74;86.76
71291;DHT22;59073;51.994;4.448;2023-11-21T09:43:07;11.77;87.29
71291;DHT22;59073;51.994;4.448;2023-11-21T09:45:36;11.78;86.82
71291;DHT22;59073;51.994;4.448;2023-11-21T09:48:04;11.83;86.48
71291;DHT22;59073;51.994;4.448;2023-11-21T09:50:30;11.88;86.79
71291;DHT22;59073;51.994;4.448;2023-11-21T09:53:13;11.77;86.76
71291;DHT22;59073;51.994;4.448;2023-11-21T09:55:46;11.81;86.92
71291;DHT22;59073;51.994;4.448;2023-11-21T09:58:16;11.82;87.04
71291;DHT22;59073;51.994;4.448;2023-11-21T10:00:44;11.88;86.83
71291;DHT22;59073;51.994;4.448;2023-11-21T10:03:10;11.83;86.93
71291;DHT22;59073;51.994;4.448;2023-11-21T10:05:37;11.86;87.03
71291;DHT22;59073;51.994;4.448;2023-11-21T10:08:10;11.89;86.80
71291;DHT22;59073;51.994;4.448;2023-11-21T10:10:37;11.88;87.29
71291;DHT22;59073;51.994;4.448;2023-11-21T10:13:05;11.92;86.66
71291;DHT22;59073;51.994;4.448;2023-11-21T10:15:35;11.92;86.68
71291;DHT22;59073;51.994;4.448;2023-11-21T10:18:02;11.95;86.50
71291;DHT22;59073;51.994;4.448;2023-11-21T10:20:30;11.96;86.70
71291;DHT22;59073;51.994;4.448;2023-11-21T10:22:56;11.72;86.96
71291;DHT22;59073;51.994;4.448;2023-11-21T10:25:22;11.62;87.36
71291;DHT22;59073;51.994;4.448;2023-11-21T10:27:48;11.62;87.17
71291;DHT22;59073;51.994;4.448;2023-11-21T10:30:17;11.61;87.22
71291;DHT22;59073;51.994;4.448;2023-11-21T10:32:43;11.67;87.37
71291;DHT22;59073;51.994;4.448;2023-11-21T10:35:10;11.52;87.33
71291;DHT22;59073;51.994;4.448;2023-11-21T10:37:36;11.50;87.10
71291;DHT22;59073;51.994;4.448;2023-11-21T10:40:11;11.47;87.01
71291;DHT22;59073;51.994;4.448;2023-11-21T10:42:38;11.48;86.91
71291;DHT22;59073;51.994;4.448;2023-11-21T10:45:05;11.45;86.51
71291;DHT22;59073;51.994;4.448;2023-11-21T10:47:39;11.44;87.18
71291;DHT22;59073;51.994;4.448;2023-11-21T10:50:05;11.51;87.52
71291;DHT22;59073;51.994;4.448;2023-11-21T10:52:31;11.42;87.82
71291;DHT22;59073;51.994;4.448;2023-11-21T10:54:57;11.45;87.49
71291;DHT22;59073;51.994;4.448;2023-11-21T10:57:25;11.48;87.60
71291;DHT22;59073;51.994;4.448;2023-11-21T10:59:54;11.48;87.66
71291;DHT22;59073;51.994;4.448;2023-11-21T11:02:26;11.44;87.75
71291;DHT22;59073;51.994;4.448;2023-11-21T11:04:54;11.42;88.22
71291;DHT22;59073;51.994;4.448;2023-11-21T11:07:26;11.50;87.93
71291;DHT22;59073;51.994;4.448;2023-11-21T11:09:53;11.42;87.92
71291;DHT22;59073;51.994;4.448;2023-11-21T11:12:19;11.55;87.40
71291;DHT22;59073;51.994;4.448;2023-11-21T11:14:45;11.67;86.90
71291;DHT22;59073;51.994;4.448;2023-11-21T11:17:10;11.67;87.12
71291;DHT22;59073;51.994;4.448;2023-11-21T11:19:37;11.61;86.75
71291;DHT22;59073;51.994;4.448;2023-11-21T11:22:24;11.78;86.50
71291;DHT22;59073;51.994;4.448;2023-11-21T11:28:01;11.75;86.22
71291;DHT22;59073;51.994;4.448;2023-11-21T11:33:25;11.78;85.90
71291;DHT22;59073;51.994;4.448;2023-11-21T11:36:36;11.83;85.92
71291;DHT22;59073;51.994;4.448;2023-11-21T11:38:54;11.54;85.76
71291;DHT22;59073;51.994;4.448;2023-11-21T11:41:31;11.54;86.14
71291;DHT22;59073;51.994;4.448;2023-11-21T11:44:01;11.61;86.26
71291;DHT22;59073;51.994;4.448;2023-11-21T11:46:43;11.47;86.34
71291;DHT22;59073;51.994;4.448;2023-11-21T11:49:23;11.52;86.25
71291;DHT22;59073;51.994;4.448;2023-11-21T11:54:55;11.91;85.06
71291;DHT22;59073;51.994;4.448;2023-11-21T11:57:24;11.88;84.92
71291;DHT22;59073;51.994;4.448;2023-11-21T12:02:56;11.72;84.63
71291;DHT22;59073;51.994;4.448;2023-11-21T12:05:27;11.88;84.40
71291;DHT22;59073;51.994;4.448;2023-11-21T12:07:57;11.91;84.36
71291;DHT22;59073;51.994;4.448;2023-11-21T12:10:25;11.68;84.43
71291;DHT22;59073;51.994;4.448;2023-11-21T12:12:53;11.69;84.57
71291;DHT22;59073;51.994;4.448;2023-11-21T12:15:19;11.68;84.77
71291;DHT22;59073;51.994;4.448;2023-11-21T12:17:46;11.79;84.58
71291;DHT22;59073;51.994;4.448;2023-11-21T12:20:12;11.69;84.92
71291;DHT22;59073;51.994;4.448;2023-11-21T12:22:46;11.67;84.89
71291;DHT22;59073;51.994;4.448;2023-11-21T12:25:28;11.75;84.53
71291;DHT22;59073;51.994;4.448;2023-11-21T12:27:55;11.81;84.44
71291;DHT22;59073;51.994;4.448;2023-11-21T12:30:26;11.75;84.34
71291;DHT22;59073;51.994;4.448;2023-11-21T12:32:57;11.95;84.33
71291;DHT22;59073;51.994;4.448;2023-11-21T12:35:28;11.93;83.32
71291;DHT22;59073;51.994;4.448;2023-11-21T12:37:57;11.83;83.82
71291;DHT22;59073;51.994;4.448;2023-11-21T12:40:23;11.74;83.31
71291;DHT22;59073;51.994;4.448;2023-11-21T12:42:51;11.69;83.59
71291;DHT22;59073;51.994;4.448;2023-11-21T12:45:26;11.68;84.01
71291;DHT22;59073;51.994;4.448;2023-11-21T12:48:02;11.83;83.50
71291;DHT22;59073;51.994;4.448;2023-11-21T12:50:33;11.72;83.10
71291;DHT22;59073;51.994;4.448;2023-11-21T12:53:05;11.74;83.00
71291;DHT22;59073;51.994;4.448;2023-11-21T12:55:32;11.61;83.70
71291;DHT22;59073;51.994;4.448;2023-11-21T12:57:58;11.57;83.70
71291;DHT22;59073;51.994;4.448;2023-11-21T13:00:33;11.61;83.31
71291;DHT22;59073;51.994;4.448;2023-11-21T13:03:04;11.77;82.46
71291;DHT22;59073;51.994;4.448;2023-11-21T13:05:32;11.74;82.72
71291;DHT22;59073;51.994;4.448;2023-11-21T13:08:00;11.78;82.23
71291;DHT22;59073;51.994;4.448;2023-11-21T13:10:31;11.68;82.87
71291;DHT22;59073;51.994;4.448;2023-11-21T13:13:00;11.71;82.61
71291;DHT22;59073;51.994;4.448;2023-11-21T13:15:29;11.85;82.71
71291;DHT22;59073;51.994;4.448;2023-11-21T13:17:57;11.82;82.36
71291;DHT22;59073;51.994;4.448;2023-11-21T13:20:24;11.79;82.37
71291;DHT22;59073;51.994;4.448;2023-11-21T13:22:55;11.79;82.12
71291;DHT22;59073;51.994;4.448;2023-11-21T13:25:25;11.75;82.53
71291;DHT22;59073;51.994;4.448;2023-11-21T13:27:53;11.69;82.62
71291;DHT22;59073;51.994;4.448;2023-11-21T13:30:19;11.79;82.22
71291;DHT22;59073;51.994;4.448;2023-11-21T13:32:52;11.75;81.30
71291;DHT22;59073;51.994;4.448;2023-11-21T13:35:18;11.68;81.90
71291;DHT22;59073;51.994;4.448;2023-11-21T13:37:48;11.89;82.29
71291;DHT22;59073;51.994;4.448;2023-11-21T13:40:15;11.54;81.45
71291;DHT22;59073;51.994;4.448;2023-11-21T13:42:45;11.93;81.70
71291;DHT22;59073;51.994;4.448;2023-11-21T13:45:11;11.93;81.57
71291;DHT22;59073;51.994;4.448;2023-11-21T13:47:38;11.98;81.51
71291;DHT22;59073;51.994;4.448;2023-11-21T13:50:05;11.85;81.99
71291;DHT22;59073;51.994;4.448;2023-11-21T13:52:39;11.85;82.49
71291;DHT22;59073;51.994;4.448;2023-11-21T13:55:05;11.85;82.32
71291;DHT22;59073;51.994;4.448;2023-11-21T13:57:33;11.78;82.32
71291;DHT22;59073;51.994;4.448;2023-11-21T13:59:58;11.88;82.17
71291;DHT22;59073;51.994;4.448;2023-11-21T14:02:24;11.74;82.46
71291;DHT22;59073;51.994;4.448;2023-11-21T14:04:57;11.86;82.63
71291;DHT22;59073;51.994;4.448;2023-11-21T14:07:26;11.92;82.68
71291;DHT22;59073;51.994;4.448;2023-11-21T14:10:04;11.82;82.65
71291;DHT22;59073;51.994;4.448;2023-11-21T14:12:32;11.58;83.16
71291;DHT22;59073;51.994;4.448;2023-11-21T14:15:01;11.45;82.92
71291;DHT22;59073;51.994;4.448;2023-11-21T14:17:30;11.28;83.84
71291;DHT22;59073;51.994;4.448;2023-11-21T14:19:56;11.38;83.96
71291;DHT22;59073;51.994;4.448;2023-11-21T14:22:21;11.55;83.35
71291;DHT22;59073;51.994;4.448;2023-11-21T14:24:46;11.51;83.49
71291;DHT22;59073;51.994;4.448;2023-11-21T14:27:13;11.40;83.26
71291;DHT22;59073;51.994;4.448;2023-11-21T14:29:40;11.28;83.67
71291;DHT22;59073;51.994;4.448;2023-11-21T14:32:08;11.34;83.83
71291;DHT22;59073;51.994;4.448;2023-11-21T14:34:34;11.27;84.05
71291;DHT22;59073;51.994;4.448;2023-11-21T14:36:59;11.41;84.16
71291;DHT22;59073;51.994;4.448;2023-11-21T14:39:28;11.31;84.35
71291;DHT22;59073;51.994;4.448;2023-11-21T14:41:54;11.26;85.04
71291;DHT22;59073;51.994;4.448;2023-11-21T14:44:25;11.21;84.73
71291;DHT22;59073;51.994;4.448;2023-11-21T14:46:57;11.10;85.19
71291;DHT22;59073;51.994;4.448;2023-11-21T14:49:24;11.16;84.37
71291;DHT22;59073;51.994;4.448;2023-11-21T14:51:54;11.13;84.28
71291;DHT22;59073;51.994;4.448;2023-11-21T14:54:27;10.88;84.35
71291;DHT22;59073;51.994;4.448;2023-11-21T14:57:13;10.66;85.23
71291;DHT22;59073;51.994;4.448;2023-11-21T14:59:45;10.66;85.41
71291;DHT22;59073;51.994;4.448;2023-11-21T15:02:18;10.68;84.77
71291;DHT22;59073;51.994;4.448;2023-11-21T15:04:50;10.49;85.22
71291;DHT22;59073;51.994;4.448;2023-11-21T15:07:26;10.56;84.69
71291;DHT22;59073;51.994;4.448;2023-11-21T15:09:52;10.55;85.11
71291;DHT22;59073;51.994;4.448;2023-11-21T15:12:19;10.63;84.59
71291;DHT22;59073;51.994;4.448;2023-11-21T15:14:48;10.65;84.53
71291;DHT22;59073;51.994;4.448;2023-11-21T15:17:17;10.42;84.48
71291;DHT22;59073;51.994;4.448;2023-11-21T15:19:53;10.29;84.96
71291;DHT22;59073;51.994;4.448;2023-11-21T15:22:19;10.48;84.85
71291;DHT22;59073;51.994;4.448;2023-11-21T15:24:44;10.56;84.37
71291;DHT22;59073;51.994;4.448;2023-11-21T15:27:13;10.49;84.25
71291;DHT22;59073;51.994;4.448;2023-11-21T15:29:39;10.52;84.23
71291;DHT22;59073;51.994;4.448;2023-11-21T15:32:08;10.55;84.01
71291;DHT22;59073;51.994;4.448;2023-11-21T15:34:36;10.49;84.06
71291;DHT22;59073;51.994;4.448;2023-11-21T15:37:03;10.56;83.90
71291;DHT22;59073;51.994;4.448;2023-11-21T15:39:29;10.58;83.34
71291;DHT22;59073;51.994;4.448;2023-11-21T15:41:56;10.53;83.59